sensor_id;sensor_type;location;lat;lon;timestamp;P1;durP1;ratioP1;P2;durP2;ratioP2
10432;SDS011;5263;48.680;9.004;2023-05-07T00:02:02;2.63;;;1.50;;
10432;SDS011;5263;48.680;9.004;2023-05-07T00:04:28;2.83;;;1.47;;
10432;SDS011;5263;48.680;9.004;2023-05-07T00:07:00;0.90;;;0.90;;
10432;SDS011;5263;48.680;9.004;2023-05-07T00:09:26;2.50;;;1.23;;
10432;SDS011;5263;48.680;9.004;2023-05-07T00:11:52;1.17;;;1.07;;
10432;SDS011;5263;48.680;9.004;2023-05-07T00:14:17;1.27;;;1.17;;
10432;SDS011;5263;48.680;9.004;2023-05-07T00:16:43;1.57;;;1.47;;
10432;SDS011;5263;48.680;9.004;2023-05-07T00:19:09;1.30;;;1.20;;
10432;SDS011;5263;48.680;9.004;2023-05-07T00:21:34;4.07;;;1.03;;
10432;SDS011;5263;48.680;9.004;2023-05-07T00:24:00;2.50;;;1.23;;
10432;SDS011;5263;48.680;9.004;2023-05-07T00:26:26;3.77;;;1.77;;
10432;SDS011;5263;48.680;9.004;2023-05-07T00:28:52;1.47;;;1.30;;
10432;SDS011;5263;48.680;9.004;2023-05-07T00:31:17;1.57;;;1.47;;
10432;SDS011;5263;48.680;9.004;2023-05-07T00:33:43;1.43;;;1.30;;
10432;SDS011;5263;48.680;9.004;2023-05-07T00:36:08;2.50;;;1.60;;
10432;SDS011;5263;48.680;9.004;2023-05-07T00:38:34;5.07;;;1.57;;
10432;SDS011;5263;48.680;9.004;2023-05-07T00:41:00;1.50;;;1.40;;
10432;SDS011;5263;48.680;9.004;2023-05-07T00:43:27;3.73;;;1.60;;
10432;SDS011;5263;48.680;9.004;2023-05-07T00:45:52;2.90;;;1.40;;
10432;SDS011;5263;48.680;9.004;2023-05-07T00:48:18;1.10;;;1.00;;
10432;SDS011;5263;48.680;9.004;2023-05-07T00:50:44;2.17;;;1.97;;
10432;SDS011;5263;48.680;9.004;2023-05-07T00:53:11;1.60;;;1.50;;
10432;SDS011;5263;48.680;9.004;2023-05-07T00:55:36;1.90;;;1.70;;
10432;SDS011;5263;48.680;9.004;2023-05-07T00:58:03;3.00;;;1.40;;
10432;SDS011;5263;48.680;9.004;2023-05-07T01:00:29;4.80;;;1.60;;
10432;SDS011;5263;48.680;9.004;2023-05-07T01:02:54;2.57;;;1.13;;
10432;SDS011;5263;48.680;9.004;2023-05-07T01:05:20;1.70;;;1.50;;
10432;SDS011;5263;48.680;9.004;2023-05-07T01:07:47;3.17;;;1.80;;
10432;SDS011;5263;48.680;9.004;2023-05-07T01:10:14;6.53;;;1.47;;
10432;SDS011;5263;48.680;9.004;2023-05-07T01:12:40;1.47;;;1.37;;
10432;SDS011;5263;48.680;9.004;2023-05-07T01:15:07;3.53;;;1.57;;
10432;SDS011;5263;48.680;9.004;2023-05-07T01:17:40;4.00;;;1.80;;
10432;SDS011;5263;48.680;9.004;2023-05-07T01:20:07;1.67;;;1.40;;
10432;SDS011;5263;48.680;9.004;2023-05-07T01:22:35;3.03;;;1.70;;
10432;SDS011;5263;48.680;9.004;2023-05-07T01:25:02;2.20;;;1.30;;
10432;SDS011;5263;48.680;9.004;2023-05-07T01:27:28;2.00;;;1.77;;
10432;SDS011;5263;48.680;9.004;2023-05-07T01:29:54;1.67;;;1.50;;
10432;SDS011;5263;48.680;9.004;2023-05-07T01:32:21;3.33;;;1.20;;
10432;SDS011;5263;48.680;9.004;2023-05-07T01:35:00;1.70;;;1.60;;
10432;SDS011;5263;48.680;9.004;2023-05-07T01:37:27;1.90;;;1.80;;
10432;SDS011;5263;48.680;9.004;2023-05-07T01:39:53;2.43;;;1.40;;
10432;SDS011;5263;48.680;9.004;2023-05-07T01:42:20;1.67;;;1.40;;
10432;SDS011;5263;48.680;9.004;2023-05-07T01:44:46;1.93;;;1.73;;
10432;SDS011;5263;48.680;9.004;2023-05-07T01:47:12;2.27;;;1.50;;
10432;SDS011;5263;48.680;9.004;2023-05-07T01:49:39;2.40;;;1.87;;
10432;SDS011;5263;48.680;9.004;2023-05-07T01:52:05;5.17;;;1.97;;
10432;SDS011;5263;48.680;9.004;2023-05-07T01:54:31;1.73;;;1.63;;
10432;SDS011;5263;48.680;9.004;2023-05-07T01:56:56;3.97;;;2.20;;
10432;SDS011;5263;48.680;9.004;2023-05-07T01:59:22;2.23;;;1.50;;
10432;SDS011;5263;48.680;9.004;2023-05-07T02:01:48;2.20;;;2.00;;
10432;SDS011;5263;48.680;9.004;2023-05-07T02:04:13;1.90;;;1.80;;
10432;SDS011;5263;48.680;9.004;2023-05-07T02:06:39;4.97;;;1.77;;
10432;SDS011;5263;48.680;9.004;2023-05-07T02:09:05;1.60;;;1.50;;
10432;SDS011;5263;48.680;9.004;2023-05-07T02:11:31;1.67;;;1.57;;
10432;SDS011;5263;48.680;9.004;2023-05-07T02:13:57;6.03;;;1.70;;
10432;SDS011;5263;48.680;9.004;2023-05-07T02:16:23;5.60;;;1.60;;
10432;SDS011;5263;48.680;9.004;2023-05-07T02:18:49;2.13;;;1.90;;
10432;SDS011;5263;48.680;9.004;2023-05-07T02:21:14;7.90;;;2.57;;
10432;SDS011;5263;48.680;9.004;2023-05-07T02:23:40;4.37;;;2.30;;
10432;SDS011;5263;48.680;9.004;2023-05-07T02:26:06;2.17;;;1.97;;
10432;SDS011;5263;48.680;9.004;2023-05-07T02:28:31;1.43;;;1.33;;
10432;SDS011;5263;48.680;9.004;2023-05-07T02:30:57;9.30;;;2.00;;
10432;SDS011;5263;48.680;9.004;2023-05-07T02:33:25;1.87;;;1.77;;
10432;SDS011;5263;48.680;9.004;2023-05-07T02:35:51;2.70;;;2.03;;
10432;SDS011;5263;48.680;9.004;2023-05-07T02:38:17;1.93;;;1.53;;
10432;SDS011;5263;48.680;9.004;2023-05-07T02:40:42;2.23;;;1.90;;
10432;SDS011;5263;48.680;9.004;2023-05-07T02:43:09;1.73;;;1.43;;
10432;SDS011;5263;48.680;9.004;2023-05-07T02:45:34;3.60;;;1.33;;
10432;SDS011;5263;48.680;9.004;2023-05-07T02:48:02;2.33;;;1.70;;
10432;SDS011;5263;48.680;9.004;2023-05-07T02:50:28;10.20;;;2.53;;
10432;SDS011;5263;48.680;9.004;2023-05-07T02:52:54;5.83;;;2.40;;
10432;SDS011;5263;48.680;9.004;2023-05-07T02:55:20;6.07;;;2.73;;
10432;SDS011;5263;48.680;9.004;2023-05-07T02:57:46;7.60;;;1.90;;
10432;SDS011;5263;48.680;9.004;2023-05-07T03:00:12;6.53;;;2.30;;
10432;SDS011;5263;48.680;9.004;2023-05-07T03:02:42;3.30;;;2.07;;
10432;SDS011;5263;48.680;9.004;2023-05-07T03:05:11;5.43;;;2.07;;
10432;SDS011;5263;48.680;9.004;2023-05-07T03:07:37;2.03;;;1.93;;
10432;SDS011;5263;48.680;9.004;2023-05-07T03:10:03;2.30;;;2.10;;
10432;SDS011;5263;48.680;9.004;2023-05-07T03:12:30;3.47;;;1.70;;
10432;SDS011;5263;48.680;9.004;2023-05-07T03:14:56;4.23;;;1.83;;
10432;SDS011;5263;48.680;9.004;2023-05-07T03:17:21;2.60;;;2.03;;
10432;SDS011;5263;48.680;9.004;2023-05-07T03:19:47;4.83;;;2.47;;
10432;SDS011;5263;48.680;9.004;2023-05-07T03:22:13;5.77;;;2.57;;
10432;SDS011;5263;48.680;9.004;2023-05-07T03:24:39;2.90;;;2.20;;
10432;SDS011;5263;48.680;9.004;2023-05-07T03:27:05;5.23;;;1.93;;
10432;SDS011;5263;48.680;9.004;2023-05-07T03:29:30;2.57;;;2.33;;
10432;SDS011;5263;48.680;9.004;2023-05-07T03:31:56;2.63;;;2.43;;
10432;SDS011;5263;48.680;9.004;2023-05-07T03:34:21;4.83;;;2.23;;
10432;SDS011;5263;48.680;9.004;2023-05-07T03:36:48;4.77;;;2.27;;
10432;SDS011;5263;48.680;9.004;2023-05-07T03:39:14;4.10;;;2.60;;
10432;SDS011;5263;48.680;9.004;2023-05-07T03:41:39;2.73;;;2.50;;
10432;SDS011;5263;48.680;9.004;2023-05-07T03:44:05;4.67;;;2.87;;
10432;SDS011;5263;48.680;9.004;2023-05-07T03:46:31;2.93;;;2.70;;
10432;SDS011;5263;48.680;9.004;2023-05-07T03:48:57;2.93;;;2.73;;
10432;SDS011;5263;48.680;9.004;2023-05-07T03:51:23;2.97;;;2.67;;
10432;SDS011;5263;48.680;9.004;2023-05-07T03:53:49;2.83;;;2.60;;
10432;SDS011;5263;48.680;9.004;2023-05-07T03:56:17;2.60;;;2.13;;
10432;SDS011;5263;48.680;9.004;2023-05-07T03:58:43;4.00;;;2.67;;
10432;SDS011;5263;48.680;9.004;2023-05-07T04:01:09;3.67;;;2.23;;
10432;SDS011;5263;48.680;9.004;2023-05-07T04:03:35;2.13;;;2.03;;
10432;SDS011;5263;48.680;9.004;2023-05-07T04:06:00;2.83;;;2.03;;
10432;SDS011;5263;48.680;9.004;2023-05-07T04:08:26;2.47;;;2.20;;
10432;SDS011;5263;48.680;9.004;2023-05-07T04:10:55;2.63;;;2.43;;
10432;SDS011;5263;48.680;9.004;2023-05-07T04:13:21;5.40;;;2.43;;
10432;SDS011;5263;48.680;9.004;2023-05-07T04:15:47;3.00;;;2.17;;
10432;SDS011;5263;48.680;9.004;2023-05-07T04:18:14;2.67;;;2.47;;
10432;SDS011;5263;48.680;9.004;2023-05-07T04:20:40;5.10;;;2.73;;
10432;SDS011;5263;48.680;9.004;2023-05-07T04:23:06;2.50;;;2.30;;
10432;SDS011;5263;48.680;9.004;2023-05-07T04:25:32;2.73;;;2.47;;
10432;SDS011;5263;48.680;9.004;2023-05-07T04:27:58;2.63;;;2.03;;
10432;SDS011;5263;48.680;9.004;2023-05-07T04:30:23;3.67;;;2.77;;
10432;SDS011;5263;48.680;9.004;2023-05-07T04:32:49;3.37;;;3.07;;
10432;SDS011;5263;48.680;9.004;2023-05-07T04:35:15;5.73;;;3.07;;
10432;SDS011;5263;48.680;9.004;2023-05-07T04:37:40;4.03;;;3.00;;
10432;SDS011;5263;48.680;9.004;2023-05-07T04:40:06;3.53;;;3.23;;
10432;SDS011;5263;48.680;9.004;2023-05-07T04:42:32;3.73;;;3.10;;
10432;SDS011;5263;48.680;9.004;2023-05-07T04:44:58;3.03;;;2.67;;
10432;SDS011;5263;48.680;9.004;2023-05-07T04:47:23;4.97;;;3.10;;
10432;SDS011;5263;48.680;9.004;2023-05-07T04:49:49;2.93;;;2.70;;
10432;SDS011;5263;48.680;9.004;2023-05-07T04:52:14;3.93;;;2.87;;
10432;SDS011;5263;48.680;9.004;2023-05-07T04:54:40;7.63;;;4.03;;
10432;SDS011;5263;48.680;9.004;2023-05-07T04:57:06;5.87;;;4.17;;
10432;SDS011;5263;48.680;9.004;2023-05-07T04:59:32;7.07;;;5.37;;
10432;SDS011;5263;48.680;9.004;2023-05-07T05:01:58;6.73;;;6.10;;
10432;SDS011;5263;48.680;9.004;2023-05-07T05:04:23;8.53;;;7.73;;
10432;SDS011;5263;48.680;9.004;2023-05-07T05:06:49;11.73;;;7.83;;
10432;SDS011;5263;48.680;9.004;2023-05-07T05:09:14;6.53;;;5.93;;
10432;SDS011;5263;48.680;9.004;2023-05-07T05:11:41;5.33;;;4.40;;
10432;SDS011;5263;48.680;9.004;2023-05-07T05:14:06;6.97;;;6.27;;
10432;SDS011;5263;48.680;9.004;2023-05-07T05:16:32;6.97;;;6.10;;
10432;SDS011;5263;48.680;9.004;2023-05-07T05:18:58;10.30;;;6.83;;
10432;SDS011;5263;48.680;9.004;2023-05-07T05:21:24;8.93;;;6.97;;
10432;SDS011;5263;48.680;9.004;2023-05-07T05:23:49;8.07;;;6.97;;
10432;SDS011;5263;48.680;9.004;2023-05-07T05:26:15;8.47;;;5.27;;
10432;SDS011;5263;48.680;9.004;2023-05-07T05:28:41;6.80;;;4.67;;
10432;SDS011;5263;48.680;9.004;2023-05-07T05:31:06;5.50;;;4.47;;
10432;SDS011;5263;48.680;9.004;2023-05-07T05:33:32;4.67;;;4.27;;
10432;SDS011;5263;48.680;9.004;2023-05-07T05:35:57;7.70;;;3.33;;
10432;SDS011;5263;48.680;9.004;2023-05-07T05:38:23;2.97;;;2.77;;
10432;SDS011;5263;48.680;9.004;2023-05-07T05:40:48;2.90;;;2.70;;
10432;SDS011;5263;48.680;9.004;2023-05-07T05:43:14;3.13;;;2.73;;
10432;SDS011;5263;48.680;9.004;2023-05-07T05:45:40;5.43;;;2.60;;
10432;SDS011;5263;48.680;9.004;2023-05-07T05:48:05;3.63;;;2.70;;
10432;SDS011;5263;48.680;9.004;2023-05-07T05:50:31;2.87;;;2.03;;
10432;SDS011;5263;48.680;9.004;2023-05-07T05:52:57;5.67;;;2.00;;
10432;SDS011;5263;48.680;9.004;2023-05-07T05:55:22;2.40;;;2.20;;
10432;SDS011;5263;48.680;9.004;2023-05-07T05:57:48;2.03;;;1.90;;
10432;SDS011;5263;48.680;9.004;2023-05-07T06:00:15;2.90;;;2.67;;
10432;SDS011;5263;48.680;9.004;2023-05-07T06:02:41;2.17;;;2.03;;
10432;SDS011;5263;48.680;9.004;2023-05-07T06:05:07;2.10;;;1.97;;
10432;SDS011;5263;48.680;9.004;2023-05-07T06:07:33;3.30;;;2.40;;
10432;SDS011;5263;48.680;9.004;2023-05-07T06:09:59;3.57;;;2.20;;
10432;SDS011;5263;48.680;9.004;2023-05-07T06:12:25;3.70;;;2.03;;
10432;SDS011;5263;48.680;9.004;2023-05-07T06:14:51;2.03;;;1.63;;
10432;SDS011;5263;48.680;9.004;2023-05-07T06:17:17;2.10;;;1.53;;
10432;SDS011;5263;48.680;9.004;2023-05-07T06:19:42;1.70;;;1.50;;
10432;SDS011;5263;48.680;9.004;2023-05-07T06:22:08;2.53;;;1.80;;
10432;SDS011;5263;48.680;9.004;2023-05-07T06:24:34;1.50;;;1.40;;
10432;SDS011;5263;48.680;9.004;2023-05-07T06:26:59;1.10;;;1.10;;
10432;SDS011;5263;48.680;9.004;2023-05-07T06:29:25;2.47;;;1.83;;
10432;SDS011;5263;48.680;9.004;2023-05-07T06:31:53;1.77;;;1.67;;
10432;SDS011;5263;48.680;9.004;2023-05-07T06:34:19;2.50;;;1.60;;
10432;SDS011;5263;48.680;9.004;2023-05-07T06:36:45;1.70;;;1.60;;
10432;SDS011;5263;48.680;9.004;2023-05-07T06:39:10;1.53;;;1.07;;
10432;SDS011;5263;48.680;9.004;2023-05-07T06:41:36;1.37;;;1.27;;
10432;SDS011;5263;48.680;9.004;2023-05-07T06:44:04;1.40;;;1.30;;
10432;SDS011;5263;48.680;9.004;2023-05-07T06:46:30;2.73;;;1.43;;
10432;SDS011;5263;48.680;9.004;2023-05-07T06:48:56;4.63;;;1.37;;
10432;SDS011;5263;48.680;9.004;2023-05-07T06:51:21;2.60;;;1.20;;
10432;SDS011;5263;48.680;9.004;2023-05-07T06:53:47;1.40;;;1.10;;
10432;SDS011;5263;48.680;9.004;2023-05-07T06:56:13;1.50;;;1.40;;
10432;SDS011;5263;48.680;9.004;2023-05-07T06:58:38;1.23;;;1.10;;
10432;SDS011;5263;48.680;9.004;2023-05-07T07:01:04;3.23;;;1.20;;
10432;SDS011;5263;48.680;9.004;2023-05-07T07:03:30;7.73;;;1.30;;
10432;SDS011;5263;48.680;9.004;2023-05-07T07:05:55;2.47;;;1.60;;
10432;SDS011;5263;48.680;9.004;2023-05-07T07:08:21;2.03;;;1.10;;
10432;SDS011;5263;48.680;9.004;2023-05-07T07:10:47;1.73;;;1.23;;
10432;SDS011;5263;48.680;9.004;2023-05-07T07:13:13;1.50;;;1.37;;
10432;SDS011;5263;48.680;9.004;2023-05-07T07:15:39;3.77;;;1.20;;
10432;SDS011;5263;48.680;9.004;2023-05-07T07:18:05;1.13;;;0.97;;
10432;SDS011;5263;48.680;9.004;2023-05-07T07:20:31;1.17;;;0.90;;
10432;SDS011;5263;48.680;9.004;2023-05-07T07:22:57;4.00;;;1.10;;
10432;SDS011;5263;48.680;9.004;2023-05-07T07:25:22;2.83;;;1.20;;
10432;SDS011;5263;48.680;9.004;2023-05-07T07:27:48;1.70;;;0.90;;
10432;SDS011;5263;48.680;9.004;2023-05-07T07:30:14;2.23;;;1.20;;
10432;SDS011;5263;48.680;9.004;2023-05-07T07:32:40;2.57;;;0.90;;
10432;SDS011;5263;48.680;9.004;2023-05-07T07:35:06;1.53;;;0.80;;
10432;SDS011;5263;48.680;9.004;2023-05-07T07:37:32;4.57;;;1.03;;
10432;SDS011;5263;48.680;9.004;2023-05-07T07:39:57;1.10;;;1.00;;
10432;SDS011;5263;48.680;9.004;2023-05-07T07:42:23;3.57;;;1.10;;
10432;SDS011;5263;48.680;9.004;2023-05-07T07:44:49;3.13;;;1.00;;
10432;SDS011;5263;48.680;9.004;2023-05-07T07:47:15;2.83;;;0.90;;
10432;SDS011;5263;48.680;9.004;2023-05-07T07:49:40;2.20;;;0.90;;
10432;SDS011;5263;48.680;9.004;2023-05-07T07:52:06;1.97;;;0.90;;
10432;SDS011;5263;48.680;9.004;2023-05-07T07:54:32;1.20;;;1.10;;
10432;SDS011;5263;48.680;9.004;2023-05-07T07:56:57;1.30;;;1.10;;
10432;SDS011;5263;48.680;9.004;2023-05-07T07:59:23;2.33;;;0.70;;
10432;SDS011;5263;48.680;9.004;2023-05-07T08:01:49;1.43;;;0.93;;
10432;SDS011;5263;48.680;9.004;2023-05-07T08:04:15;2.70;;;0.90;;
10432;SDS011;5263;48.680;9.004;2023-05-07T08:06:41;1.30;;;1.00;;
10432;SDS011;5263;48.680;9.004;2023-05-07T08:09:07;1.00;;;0.90;;
10432;SDS011;5263;48.680;9.004;2023-05-07T08:11:33;1.37;;;0.70;;
10432;SDS011;5263;48.680;9.004;2023-05-07T08:13:58;3.27;;;0.73;;
10432;SDS011;5263;48.680;9.004;2023-05-07T08:16:25;1.20;;;0.90;;
10432;SDS011;5263;48.680;9.004;2023-05-07T08:18:50;1.10;;;0.80;;
10432;SDS011;5263;48.680;9.004;2023-05-07T08:21:16;0.73;;;0.60;;
10432;SDS011;5263;48.680;9.004;2023-05-07T08:23:42;1.47;;;0.70;;
10432;SDS011;5263;48.680;9.004;2023-05-07T08:26:08;4.77;;;0.70;;
10432;SDS011;5263;48.680;9.004;2023-05-07T08:28:33;0.90;;;0.53;;
10432;SDS011;5263;48.680;9.004;2023-05-07T08:30:59;3.27;;;0.70;;
10432;SDS011;5263;48.680;9.004;2023-05-07T08:33:26;1.43;;;0.70;;
10432;SDS011;5263;48.680;9.004;2023-05-07T08:35:52;0.77;;;0.53;;
10432;SDS011;5263;48.680;9.004;2023-05-07T08:38:17;1.03;;;0.70;;
10432;SDS011;5263;48.680;9.004;2023-05-07T08:40:43;2.87;;;0.70;;
10432;SDS011;5263;48.680;9.004;2023-05-07T08:43:08;1.03;;;0.63;;
10432;SDS011;5263;48.680;9.004;2023-05-07T08:45:40;2.97;;;0.67;;
10432;SDS011;5263;48.680;9.004;2023-05-07T08:48:09;1.20;;;0.70;;
10432;SDS011;5263;48.680;9.004;2023-05-07T08:50:40;2.50;;;0.80;;
10432;SDS011;5263;48.680;9.004;2023-05-07T08:53:06;0.73;;;0.60;;
10432;SDS011;5263;48.680;9.004;2023-05-07T08:55:32;2.23;;;0.70;;
10432;SDS011;5263;48.680;9.004;2023-05-07T08:57:58;1.67;;;0.77;;
10432;SDS011;5263;48.680;9.004;2023-05-07T09:00:24;2.10;;;0.67;;
10432;SDS011;5263;48.680;9.004;2023-05-07T09:02:50;2.23;;;0.80;;
10432;SDS011;5263;48.680;9.004;2023-05-07T09:05:15;1.37;;;0.80;;
10432;SDS011;5263;48.680;9.004;2023-05-07T09:07:41;2.30;;;0.70;;
10432;SDS011;5263;48.680;9.004;2023-05-07T09:10:07;1.80;;;0.73;;
10432;SDS011;5263;48.680;9.004;2023-05-07T09:12:33;1.20;;;0.70;;
10432;SDS011;5263;48.680;9.004;2023-05-07T09:15:00;2.40;;;0.70;;
10432;SDS011;5263;48.680;9.004;2023-05-07T09:17:26;1.03;;;0.90;;
10432;SDS011;5263;48.680;9.004;2023-05-07T09:19:52;0.70;;;0.70;;
10432;SDS011;5263;48.680;9.004;2023-05-07T09:22:18;1.53;;;0.80;;
10432;SDS011;5263;48.680;9.004;2023-05-07T09:24:47;0.60;;;0.60;;
10432;SDS011;5263;48.680;9.004;2023-05-07T09:27:14;2.30;;;1.00;;
10432;SDS011;5263;48.680;9.004;2023-05-07T09:29:40;1.63;;;0.83;;
10432;SDS011;5263;48.680;9.004;2023-05-07T09:32:06;1.23;;;0.80;;
10432;SDS011;5263;48.680;9.004;2023-05-07T09:34:33;0.70;;;0.70;;
10432;SDS011;5263;48.680;9.004;2023-05-07T09:37:01;1.03;;;0.70;;
10432;SDS011;5263;48.680;9.004;2023-05-07T09:39:47;2.83;;;1.17;;
10432;SDS011;5263;48.680;9.004;2023-05-07T09:42:13;1.07;;;0.87;;
10432;SDS011;5263;48.680;9.004;2023-05-07T09:44:40;1.70;;;0.60;;
10432;SDS011;5263;48.680;9.004;2023-05-07T09:47:07;1.77;;;0.70;;
10432;SDS011;5263;48.680;9.004;2023-05-07T09:49:34;2.37;;;0.70;;
10432;SDS011;5263;48.680;9.004;2023-05-07T09:52:02;0.87;;;0.80;;
10432;SDS011;5263;48.680;9.004;2023-05-07T09:54:31;0.80;;;0.80;;
10432;SDS011;5263;48.680;9.004;2023-05-07T09:56:58;3.67;;;0.80;;
10432;SDS011;5263;48.680;9.004;2023-05-07T09:59:27;3.73;;;1.07;;
10432;SDS011;5263;48.680;9.004;2023-05-07T10:01:56;1.20;;;0.70;;
10432;SDS011;5263;48.680;9.004;2023-05-07T10:04:24;1.23;;;0.90;;
10432;SDS011;5263;48.680;9.004;2023-05-07T10:06:50;1.87;;;1.00;;
10432;SDS011;5263;48.680;9.004;2023-05-07T10:09:16;2.73;;;1.27;;
10432;SDS011;5263;48.680;9.004;2023-05-07T10:11:42;1.83;;;0.93;;
10432;SDS011;5263;48.680;9.004;2023-05-07T10:14:08;1.90;;;0.90;;
10432;SDS011;5263;48.680;9.004;2023-05-07T10:16:35;1.03;;;0.77;;
10432;SDS011;5263;48.680;9.004;2023-05-07T10:19:02;0.97;;;0.90;;
10432;SDS011;5263;48.680;9.004;2023-05-07T10:21:29;4.20;;;0.70;;
10432;SDS011;5263;48.680;9.004;2023-05-07T10:24:03;2.83;;;0.90;;
10432;SDS011;5263;48.680;9.004;2023-05-07T10:26:47;1.80;;;0.83;;
10432;SDS011;5263;48.680;9.004;2023-05-07T10:34:37;3.83;;;0.80;;
10432;SDS011;5263;48.680;9.004;2023-05-07T10:37:06;0.85;;;0.70;;
10432;SDS011;5263;48.680;9.004;2023-05-07T10:39:34;0.63;;;0.60;;
10432;SDS011;5263;48.680;9.004;2023-05-07T10:42:12;1.77;;;0.60;;
10432;SDS011;5263;48.680;9.004;2023-05-07T10:44:39;1.65;;;0.70;;
10432;SDS011;5263;48.680;9.004;2023-05-07T10:47:11;1.58;;;0.70;;
10432;SDS011;5263;48.680;9.004;2023-05-07T10:52:13;1.73;;;0.80;;
10432;SDS011;5263;48.680;9.004;2023-05-07T10:54:41;1.27;;;0.68;;
10432;SDS011;5263;48.680;9.004;2023-05-07T11:03:07;1.20;;;0.70;;
10432;SDS011;5263;48.680;9.004;2023-05-07T11:05:33;1.80;;;0.70;;
10432;SDS011;5263;48.680;9.004;2023-05-07T11:08:00;3.13;;;0.73;;
10432;SDS011;5263;48.680;9.004;2023-05-07T11:13:19;4.57;;;0.70;;
10432;SDS011;5263;48.680;9.004;2023-05-07T11:16:16;1.15;;;0.80;;
10432;SDS011;5263;48.680;9.004;2023-05-07T11:18:49;3.30;;;0.90;;
10432;SDS011;5263;48.680;9.004;2023-05-07T11:21:35;0.70;;;0.70;;
10432;SDS011;5263;48.680;9.004;2023-05-07T11:24:08;1.63;;;0.67;;
10432;SDS011;5263;48.680;9.004;2023-05-07T11:26:50;1.90;;;0.70;;
10432;SDS011;5263;48.680;9.004;2023-05-07T11:29:17;1.33;;;0.90;;
10432;SDS011;5263;48.680;9.004;2023-05-07T11:31:44;0.60;;;0.60;;
10432;SDS011;5263;48.680;9.004;2023-05-07T11:34:23;2.33;;;0.70;;
10432;SDS011;5263;48.680;9.004;2023-05-07T11:36:51;0.77;;;0.70;;
10432;SDS011;5263;48.680;9.004;2023-05-07T11:39:50;1.47;;;0.80;;
10432;SDS011;5263;48.680;9.004;2023-05-07T11:42:28;2.43;;;0.60;;
10432;SDS011;5263;48.680;9.004;2023-05-07T11:44:54;2.30;;;0.70;;
10432;SDS011;5263;48.680;9.004;2023-05-07T11:47:20;3.27;;;0.70;;
10432;SDS011;5263;48.680;9.004;2023-05-07T11:49:50;1.00;;;0.60;;
10432;SDS011;5263;48.680;9.004;2023-05-07T11:52:17;1.80;;;0.73;;
10432;SDS011;5263;48.680;9.004;2023-05-07T11:57:16;3.50;;;0.80;;
10432;SDS011;5263;48.680;9.004;2023-05-07T11:59:42;1.30;;;1.20;;
10432;SDS011;5263;48.680;9.004;2023-05-07T12:02:09;1.20;;;1.10;;
10432;SDS011;5263;48.680;9.004;2023-05-07T12:04:35;1.33;;;0.93;;
10432;SDS011;5263;48.680;9.004;2023-05-07T12:07:02;1.80;;;0.70;;
10432;SDS011;5263;48.680;9.004;2023-05-07T12:09:28;2.20;;;0.70;;
10432;SDS011;5263;48.680;9.004;2023-05-07T12:11:54;1.07;;;0.50;;
10432;SDS011;5263;48.680;9.004;2023-05-07T12:14:21;4.10;;;0.53;;
10432;SDS011;5263;48.680;9.004;2023-05-07T12:16:46;4.97;;;0.70;;
10432;SDS011;5263;48.680;9.004;2023-05-07T12:19:13;4.83;;;0.63;;
10432;SDS011;5263;48.680;9.004;2023-05-07T12:21:39;0.73;;;0.30;;
10432;SDS011;5263;48.680;9.004;2023-05-07T12:24:05;1.10;;;0.27;;
10432;SDS011;5263;48.680;9.004;2023-05-07T12:26:31;1.80;;;0.30;;
10432;SDS011;5263;48.680;9.004;2023-05-07T12:28:57;2.47;;;0.40;;
10432;SDS011;5263;48.680;9.004;2023-05-07T12:31:25;2.20;;;0.73;;
10432;SDS011;5263;48.680;9.004;2023-05-07T12:33:51;2.00;;;0.50;;
10432;SDS011;5263;48.680;9.004;2023-05-07T12:36:16;0.77;;;0.60;;
10432;SDS011;5263;48.680;9.004;2023-05-07T12:38:42;1.47;;;0.60;;
10432;SDS011;5263;48.680;9.004;2023-05-07T12:41:08;2.77;;;0.50;;
10432;SDS011;5263;48.680;9.004;2023-05-07T12:43:35;1.83;;;0.60;;
10432;SDS011;5263;48.680;9.004;2023-05-07T12:46:01;1.93;;;0.90;;
10432;SDS011;5263;48.680;9.004;2023-05-07T12:48:29;3.53;;;0.90;;
10432;SDS011;5263;48.680;9.004;2023-05-07T12:50:56;3.13;;;1.10;;
10432;SDS011;5263;48.680;9.004;2023-05-07T12:53:23;5.20;;;1.27;;
10432;SDS011;5263;48.680;9.004;2023-05-07T12:55:51;3.40;;;1.30;;
10432;SDS011;5263;48.680;9.004;2023-05-07T13:00:58;4.43;;;1.10;;
10432;SDS011;5263;48.680;9.004;2023-05-07T13:05:53;4.20;;;1.20;;
10432;SDS011;5263;48.680;9.004;2023-05-07T13:08:26;3.57;;;1.40;;
10432;SDS011;5263;48.680;9.004;2023-05-07T13:10:53;1.57;;;1.23;;
10432;SDS011;5263;48.680;9.004;2023-05-07T13:13:20;1.80;;;1.13;;
10432;SDS011;5263;48.680;9.004;2023-05-07T13:15:46;3.73;;;1.20;;
10432;SDS011;5263;48.680;9.004;2023-05-07T13:18:12;6.97;;;2.03;;
10432;SDS011;5263;48.680;9.004;2023-05-07T13:20:38;2.33;;;1.63;;
10432;SDS011;5263;48.680;9.004;2023-05-07T13:23:03;3.57;;;1.60;;
10432;SDS011;5263;48.680;9.004;2023-05-07T13:25:29;0.90;;;0.90;;
10432;SDS011;5263;48.680;9.004;2023-05-07T13:27:59;0.97;;;0.80;;
10432;SDS011;5263;48.680;9.004;2023-05-07T13:30:24;2.70;;;0.90;;
10432;SDS011;5263;48.680;9.004;2023-05-07T13:32:50;0.90;;;0.90;;
10432;SDS011;5263;48.680;9.004;2023-05-07T13:35:17;3.10;;;1.07;;
10432;SDS011;5263;48.680;9.004;2023-05-07T13:37:42;2.67;;;1.20;;
10432;SDS011;5263;48.680;9.004;2023-05-07T13:40:08;4.50;;;1.63;;
10432;SDS011;5263;48.680;9.004;2023-05-07T13:42:34;3.90;;;1.37;;
10432;SDS011;5263;48.680;9.004;2023-05-07T13:45:00;5.93;;;2.10;;
10432;SDS011;5263;48.680;9.004;2023-05-07T13:47:25;4.07;;;2.50;;
10432;SDS011;5263;48.680;9.004;2023-05-07T13:49:51;3.40;;;1.43;;
10432;SDS011;5263;48.680;9.004;2023-05-07T13:52:17;3.43;;;2.10;;
10432;SDS011;5263;48.680;9.004;2023-05-07T13:54:43;6.17;;;2.23;;
10432;SDS011;5263;48.680;9.004;2023-05-07T13:57:08;4.43;;;2.53;;
10432;SDS011;5263;48.680;9.004;2023-05-07T13:59:34;7.00;;;4.10;;
10432;SDS011;5263;48.680;9.004;2023-05-07T14:02:00;2.57;;;2.37;;
10432;SDS011;5263;48.680;9.004;2023-05-07T14:04:25;4.03;;;2.57;;
10432;SDS011;5263;48.680;9.004;2023-05-07T14:06:51;3.77;;;2.20;;
10432;SDS011;5263;48.680;9.004;2023-05-07T14:09:16;2.33;;;2.00;;
10432;SDS011;5263;48.680;9.004;2023-05-07T14:11:42;1.90;;;1.10;;
10432;SDS011;5263;48.680;9.004;2023-05-07T14:14:08;2.13;;;1.70;;
10432;SDS011;5263;48.680;9.004;2023-05-07T14:16:36;4.53;;;1.67;;
10432;SDS011;5263;48.680;9.004;2023-05-07T14:19:02;2.17;;;1.20;;
10432;SDS011;5263;48.680;9.004;2023-05-07T14:21:27;9.40;;;1.17;;
10432;SDS011;5263;48.680;9.004;2023-05-07T14:23:53;7.03;;;1.43;;
10432;SDS011;5263;48.680;9.004;2023-05-07T14:26:19;3.53;;;1.73;;
10432;SDS011;5263;48.680;9.004;2023-05-07T14:28:45;2.00;;;1.00;;
10432;SDS011;5263;48.680;9.004;2023-05-07T14:31:11;1.40;;;1.00;;
10432;SDS011;5263;48.680;9.004;2023-05-07T14:33:37;2.17;;;1.17;;
10432;SDS011;5263;48.680;9.004;2023-05-07T14:36:03;3.03;;;1.23;;
10432;SDS011;5263;48.680;9.004;2023-05-07T14:38:29;2.13;;;1.20;;
10432;SDS011;5263;48.680;9.004;2023-05-07T14:40:55;1.53;;;1.20;;
10432;SDS011;5263;48.680;9.004;2023-05-07T14:43:21;1.87;;;1.10;;
10432;SDS011;5263;48.680;9.004;2023-05-07T14:45:47;2.00;;;0.93;;
10432;SDS011;5263;48.680;9.004;2023-05-07T14:48:12;1.67;;;1.30;;
10432;SDS011;5263;48.680;9.004;2023-05-07T14:50:40;1.83;;;1.27;;
10432;SDS011;5263;48.680;9.004;2023-05-07T14:53:07;4.97;;;1.30;;
10432;SDS011;5263;48.680;9.004;2023-05-07T14:55:33;2.17;;;1.43;;
10432;SDS011;5263;48.680;9.004;2023-05-07T14:57:59;1.43;;;0.97;;
10432;SDS011;5263;48.680;9.004;2023-05-07T15:00:25;2.87;;;1.10;;
10432;SDS011;5263;48.680;9.004;2023-05-07T15:02:51;4.20;;;1.13;;
10432;SDS011;5263;48.680;9.004;2023-05-07T15:05:16;2.33;;;1.43;;
10432;SDS011;5263;48.680;9.004;2023-05-07T15:07:44;1.57;;;1.13;;
10432;SDS011;5263;48.680;9.004;2023-05-07T15:10:10;3.23;;;1.40;;
10432;SDS011;5263;48.680;9.004;2023-05-07T15:12:36;3.63;;;1.93;;
10432;SDS011;5263;48.680;9.004;2023-05-07T15:15:02;5.93;;;2.30;;
10432;SDS011;5263;48.680;9.004;2023-05-07T15:17:28;2.00;;;1.30;;
10432;SDS011;5263;48.680;9.004;2023-05-07T15:19:53;3.17;;;1.70;;
10432;SDS011;5263;48.680;9.004;2023-05-07T15:22:20;8.07;;;7.30;;